createdAt,value
2022-09-28T00:03:19.967Z,8.43
2022-09-28T00:08:22.481Z,8.95
2022-09-28T00:13:25.563Z,8.79
2022-09-28T00:18:29.389Z,8.55
2022-09-28T00:23:31.825Z,9.13
2022-09-28T00:28:34.264Z,9.61
2022-09-28T00:33:38.047Z,9.73
2022-09-28T00:38:40.677Z,9.44
2022-09-28T00:43:43.232Z,9.67
2022-09-28T00:48:53.866Z,9.88
2022-09-28T00:53:57.482Z,9.48
2022-09-28T00:59:00.961Z,9.59
2022-09-28T01:04:05.643Z,7.82
2022-09-28T01:09:11.365Z,8.17
2022-09-28T01:14:16.526Z,7.92
2022-09-28T01:19:38.610Z,8.72
2022-09-28T01:24:44.930Z,9.13
2022-09-28T01:29:56.211Z,9.09
2022-09-28T01:35:03.618Z,9.14
2022-09-28T01:40:08.605Z,9.11
2022-09-28T01:45:18.287Z,8.94
2022-09-28T01:50:25.037Z,8.69
2022-09-28T01:55:32.435Z,8.09
2022-09-28T02:00:41.537Z,7.88
2022-09-28T02:05:50.495Z,7.60
2022-09-28T02:10:58.789Z,7.77
2022-09-28T02:16:07.375Z,8.00
2022-09-28T02:21:14.116Z,8.09
2022-09-28T02:26:22.154Z,8.41
2022-09-28T02:31:27.661Z,8.54
2022-09-28T02:36:30.619Z,8.62
2022-09-28T02:41:47.152Z,8.73
2022-09-28T02:46:58.673Z,8.81
2022-09-28T02:52:18.613Z,8.83
2022-09-28T02:57:32.966Z,8.81
2022-09-28T03:02:45.226Z,8.59
2022-09-28T03:07:56.952Z,8.60
2022-09-28T03:13:00.330Z,8.71
2022-09-28T03:18:04.874Z,8.48
2022-09-28T03:23:23.706Z,8.49
2022-09-28T03:28:28.166Z,8.55
2022-09-28T03:33:32.188Z,8.84
2022-09-28T03:38:34.859Z,8.82
2022-09-28T03:43:37.311Z,8.68
2022-09-28T03:48:41.828Z,8.90
2022-09-28T03:53:44.245Z,9.13
2022-09-28T03:58:46.845Z,8.90
2022-09-28T04:03:55.057Z,9.04
2022-09-28T04:08:57.745Z,9.05
2022-09-28T04:14:00.195Z,9.12
2022-09-28T04:19:04.395Z,9.29
2022-09-28T04:24:07.001Z,9.56
2022-09-28T04:29:19.877Z,9.73
2022-09-28T04:34:24.373Z,9.75
2022-09-28T04:39:26.810Z,9.58
2022-09-28T04:44:29.451Z,9.77
2022-09-28T04:49:35.332Z,9.87
2022-09-28T04:54:37.776Z,9.90
2022-09-28T04:59:40.317Z,9.95
2022-09-28T05:04:44.178Z,10.08
2022-09-28T05:09:46.603Z,10.21
2022-09-28T05:14:49.083Z,10.17
2022-09-28T05:19:52.868Z,10.15
2022-09-28T05:24:55.811Z,10.18
2022-09-28T05:29:58.343Z,10.32
2022-09-28T05:35:02.145Z,10.10
2022-09-28T05:40:05.395Z,10.30
2022-09-28T05:45:09.081Z,10.29
2022-09-28T05:50:15.861Z,10.43
2022-09-28T05:55:18.282Z,10.62
2022-09-28T06:00:20.978Z,10.55
2022-09-28T06:05:25.434Z,9.96
2022-09-28T06:10:29.477Z,9.92
2022-09-28T06:15:33.776Z,10.37
2022-09-28T06:20:39.748Z,10.67
2022-09-28T06:25:42.686Z,10.47
2022-09-28T06:30:45.815Z,10.32
2022-09-28T06:35:49.623Z,10.25
2022-09-28T06:40:52.169Z,10.29
2022-09-28T06:45:55.313Z,10.14
2022-09-28T06:50:59.133Z,10.17
2022-09-28T06:56:02.498Z,10.65
2022-09-28T07:01:05.736Z,10.63
2022-09-28T07:06:13.124Z,10.20
2022-09-28T07:11:15.520Z,10.08
2022-09-28T07:16:19.760Z,10.24
2022-09-28T07:21:30.209Z,9.82
2022-09-28T07:26:34.011Z,9.89
2022-09-28T07:31:36.451Z,10.08
2022-09-28T07:36:40.287Z,10.11
2022-09-28T07:41:43.891Z,9.79
2022-09-28T07:46:46.577Z,10.12
2022-09-28T07:51:50.357Z,9.65
2022-09-28T07:56:52.993Z,10.04
2022-09-28T08:01:55.430Z,10.75
2022-09-28T08:06:59.719Z,10.63
2022-09-28T08:12:04.028Z,10.95
2022-09-28T08:17:08.213Z,10.92
2022-09-28T08:22:11.987Z,10.92
2022-09-28T08:27:15.241Z,10.71
2022-09-28T08:32:19.607Z,10.87
2022-09-28T08:37:26.295Z,10.88
2022-09-28T08:42:36.349Z,11.29
2022-09-28T08:48:07.886Z,10.87
2022-09-28T08:53:26.882Z,11.30
2022-09-28T08:58:34.389Z,11.09
2022-09-28T09:03:39.743Z,10.96
2022-09-28T09:08:55.536Z,10.52
2022-09-28T09:14:31.815Z,11.15
2022-09-28T09:19:37.220Z,11.08
2022-09-28T09:24:49.496Z,10.84
2022-09-28T09:30:04.734Z,10.53
2022-09-28T09:35:26.502Z,10.23
2022-09-28T09:40:58.373Z,10.05
2022-09-28T09:46:14.997Z,10.86
2022-09-28T09:51:25.193Z,10.69
2022-09-28T09:56:35.575Z,10.93
2022-09-28T10:01:41.124Z,11.01
2022-09-28T10:06:44.745Z,11.29
2022-09-28T10:11:50.401Z,10.78
2022-09-28T10:16:55.346Z,11.27
2022-09-28T10:21:58.568Z,11.30
2022-09-28T10:27:06.825Z,11.13
2022-09-28T10:32:20.374Z,11.48
2022-09-28T10:37:24.305Z,11.27
2022-09-28T10:42:31.324Z,11.75
2022-09-28T10:47:35.950Z,12.15
2022-09-28T10:52:41.560Z,12.97
2022-09-28T10:57:45.386Z,12.25
2022-09-28T11:02:47.958Z,12.04
2022-09-28T11:07:52.336Z,11.78
2022-09-28T11:12:57.433Z,12.44
2022-09-28T11:18:19.945Z,12.90
2022-09-28T11:23:28.198Z,12.71
2022-09-28T11:28:34.775Z,12.78
2022-09-28T11:33:39.881Z,12.43
2022-09-28T11:38:53.644Z,12.43
2022-09-28T11:44:22.481Z,12.21
2022-09-28T11:49:32.559Z,11.79
2022-09-28T11:54:41.890Z,12.03
2022-09-28T11:59:56.390Z,12.79
2022-09-28T12:05:08.569Z,14.46
2022-09-28T12:10:18.982Z,15.81
2022-09-28T12:15:27.176Z,17.12
2022-09-28T12:20:33.520Z,22.29
2022-09-28T12:25:42.724Z,22.45
2022-09-28T12:30:48.838Z,22.51
2022-09-28T12:36:07.027Z,26.24
2022-09-28T12:41:22.662Z,21.70
2022-09-28T12:46:38.127Z,18.54
2022-09-28T12:51:49.581Z,18.17
2022-09-28T12:57:04.657Z,18.87
2022-09-28T13:02:42.989Z,16.33
2022-09-28T13:07:54.054Z,19.87
2022-09-28T13:13:14.710Z,17.93
2022-09-28T13:18:27.251Z,16.72
2022-09-28T13:23:35.128Z,18.52
2022-09-28T13:28:39.772Z,18.14
2022-09-28T13:33:46.657Z,19.82
2022-09-28T13:38:52.790Z,16.63
2022-09-28T13:44:28.413Z,15.65
2022-09-28T13:49:45.521Z,15.41
2022-09-28T13:54:57.070Z,15.16
2022-09-28T14:00:08.583Z,14.66
2022-09-28T14:05:41.815Z,14.77
2022-09-28T14:10:52.277Z,14.09
2022-09-28T14:15:54.828Z,14.16
2022-09-28T14:21:24.177Z,14.69
2022-09-28T14:26:57.879Z,14.22
2022-09-28T14:32:06.566Z,14.19
2022-09-28T14:37:39.411Z,14.18
2022-09-28T14:43:24.877Z,14.22
2022-09-28T14:48:45.893Z,13.82
2022-09-28T14:53:51.074Z,13.68
2022-09-28T14:58:57.778Z,13.66
2022-09-28T15:04:05.586Z,13.91
2022-09-28T15:09:29.101Z,13.60
2022-09-28T15:14:34.387Z,12.91
2022-09-28T15:19:51.881Z,13.32
2022-09-28T15:25:02.024Z,13.24
2022-09-28T15:30:20.095Z,13.17
2022-09-28T15:35:27.526Z,12.68
2022-09-28T15:40:34.343Z,12.66
2022-09-28T15:45:40.009Z,12.48
2022-09-28T15:50:57.994Z,12.91
2022-09-28T15:56:09.706Z,12.92
2022-09-28T16:01:26.749Z,13.31
2022-09-28T16:06:30.869Z,12.51
2022-09-28T16:11:39.914Z,12.74
2022-09-28T16:16:47.315Z,12.70
2022-09-28T16:21:53.483Z,13.24
2022-09-28T16:26:58.999Z,12.78
2022-09-28T16:32:37.651Z,12.90
2022-09-28T16:37:42.713Z,12.80
2022-09-28T16:42:49.137Z,12.41
2022-09-28T16:47:53.092Z,11.71
2022-09-28T16:53:21.158Z,11.50
2022-09-28T16:58:25.156Z,11.57
2022-09-28T17:03:29.245Z,11.02
2022-09-28T17:08:35.464Z,10.10
2022-09-28T17:13:38.308Z,9.97
2022-09-28T17:18:41.517Z,10.30
2022-09-28T17:23:46.596Z,9.81
2022-09-28T17:28:49.051Z,9.50
2022-09-28T17:33:52.111Z,9.50
2022-09-28T17:38:57.171Z,10.21
2022-09-28T17:44:03.037Z,10.26
2022-09-28T17:49:07.458Z,10.44
2022-09-28T17:54:12.951Z,10.65
2022-09-28T17:59:18.485Z,10.54
2022-09-28T18:04:47.184Z,10.10
2022-09-28T18:09:45.074Z,9.74
2022-09-28T18:14:48.047Z,8.33
2022-09-28T18:19:51.185Z,8.00
2022-09-28T18:24:55.439Z,7.98
2022-09-28T18:29:58.261Z,8.22
2022-09-28T18:35:00.815Z,8.12
2022-09-28T18:40:05.961Z,7.97
2022-09-28T18:45:11.372Z,8.29
2022-09-28T18:50:15.378Z,8.68
2022-09-28T18:55:20.026Z,9.24
2022-09-28T19:00:22.788Z,8.79
2022-09-28T19:05:28.631Z,9.13
2022-09-28T19:10:32.611Z,8.80
2022-09-28T19:15:35.323Z,9.21
2022-09-28T19:20:38.009Z,9.30
2022-09-28T19:25:42.173Z,9.57
2022-09-28T19:30:44.987Z,9.50
2022-09-28T19:35:55.996Z,9.36
2022-09-28T19:41:00.354Z,8.76
2022-09-28T19:46:05.394Z,8.83
2022-09-28T19:51:08.747Z,9.12
2022-09-28T19:56:12.817Z,8.73
2022-09-28T20:01:15.590Z,8.78
2022-09-28T20:06:18.296Z,8.71
2022-09-28T20:11:22.590Z,8.28
2022-09-28T20:16:25.395Z,7.88
2022-09-28T20:21:28.420Z,8.33
2022-09-28T20:26:37.231Z,8.41
2022-09-28T20:31:39.802Z,7.71
2022-09-28T20:36:43.137Z,7.83
2022-09-28T20:41:49.234Z,8.08
2022-09-28T20:46:52.353Z,7.63
2022-09-28T20:51:55.207Z,7.13
2022-09-28T20:56:59.115Z,7.76
2022-09-28T21:02:01.754Z,7.98
2022-09-28T21:07:04.445Z,8.19
2022-09-28T21:12:09.223Z,7.38
2022-09-28T21:17:11.758Z,7.96
2022-09-28T21:22:14.482Z,7.35
2022-09-28T21:27:20.565Z,7.53
2022-09-28T21:32:24.210Z,7.88
2022-09-28T21:37:26.736Z,7.99
2022-09-28T21:42:30.949Z,7.08
2022-09-28T21:47:33.776Z,7.00
2022-09-28T21:52:36.320Z,7.13
2022-09-28T21:57:40.363Z,7.59
2022-09-28T22:02:43.226Z,8.28
2022-09-28T22:07:45.856Z,8.90
2022-09-28T22:12:50.072Z,9.13
2022-09-28T22:17:52.796Z,9.33
2022-09-28T22:22:55.377Z,9.53
2022-09-28T22:27:59.350Z,9.65
2022-09-28T22:33:02.592Z,9.70
2022-09-28T22:38:05.420Z,9.68
2022-09-28T22:43:09.329Z,9.85
2022-09-28T22:48:12.193Z,9.68
2022-09-28T22:53:15.028Z,9.78
2022-09-28T22:58:18.973Z,9.87
2022-09-28T23:03:21.773Z,9.84
2022-09-28T23:08:25.289Z,9.75
2022-09-28T23:13:30.979Z,9.67
2022-09-28T23:18:35.457Z,9.28
2022-09-28T23:23:37.980Z,8.80
2022-09-28T23:28:42.338Z,8.82
2022-09-28T23:33:45.199Z,8.97
2022-09-28T23:38:47.802Z,8.35
2022-09-28T23:43:51.945Z,7.23
2022-09-28T23:48:54.859Z,6.30
2022-09-28T23:53:57.386Z,6.22
2022-09-28T23:59:01.442Z,7.26
